createdAt,value
2019-02-14T00:01:12.018Z,5.10
2019-02-14T00:03:38.554Z,4.77
2019-02-14T00:06:05.128Z,5.23
2019-02-14T00:08:31.698Z,5.07
2019-02-14T00:10:58.461Z,5.43
2019-02-14T00:13:25.304Z,5.23
2019-02-14T00:15:51.846Z,4.63
2019-02-14T00:18:18.377Z,4.60
2019-02-14T00:20:45.214Z,4.90
2019-02-14T00:23:11.748Z,4.87
2019-02-14T00:25:38.594Z,4.87
2019-02-14T00:28:05.127Z,4.53
2019-02-14T00:30:31.660Z,4.83
2019-02-14T00:32:58.501Z,4.77
2019-02-14T00:35:25.465Z,4.97
2019-02-14T00:37:52.519Z,4.23
2019-02-14T00:40:19.033Z,4.70
2019-02-14T00:42:45.561Z,4.70
2019-02-14T00:45:12.402Z,4.90
2019-02-14T00:47:39.247Z,4.73
2019-02-14T00:50:05.779Z,4.23
2019-02-14T00:52:32.629Z,4.30
2019-02-14T00:54:59.159Z,4.87
2019-02-14T00:57:26.304Z,4.60
2019-02-14T00:59:52.839Z,4.73
2019-02-14T01:02:19.372Z,4.80
2019-02-14T01:04:45.908Z,4.93
2019-02-14T01:07:12.748Z,5.03
2019-02-14T01:09:39.591Z,4.80
2019-02-14T01:12:06.227Z,5.00
2019-02-14T01:14:32.743Z,4.67
2019-02-14T01:16:59.282Z,4.50
2019-02-14T01:19:26.063Z,5.10
2019-02-14T01:21:52.880Z,5.60
2019-02-14T01:24:19.412Z,5.07
2019-02-14T01:26:46.047Z,5.60
2019-02-14T01:29:12.787Z,4.70
2019-02-14T01:31:39.334Z,4.37
2019-02-14T01:34:06.166Z,4.80
2019-02-14T01:36:32.702Z,5.23
2019-02-14T01:38:59.544Z,4.40
2019-02-14T01:41:26.075Z,4.70
2019-02-14T01:43:52.714Z,4.73
2019-02-14T01:46:19.451Z,5.10
2019-02-14T01:48:45.988Z,5.20
2019-02-14T01:51:12.533Z,4.60
2019-02-14T01:53:39.366Z,5.13
2019-02-14T01:56:05.899Z,4.83
2019-02-14T01:58:32.746Z,4.47
2019-02-14T02:00:59.271Z,4.43
2019-02-14T02:03:25.812Z,4.90
2019-02-14T02:05:52.340Z,4.67
2019-02-14T02:08:18.885Z,5.13
2019-02-14T02:10:45.717Z,5.03
2019-02-14T02:13:12.255Z,5.10
2019-02-14T02:15:38.788Z,5.50
2019-02-14T02:18:05.666Z,5.30
2019-02-14T02:20:33.536Z,4.87
2019-02-14T02:23:00.409Z,4.67
2019-02-14T02:25:27.084Z,5.73
2019-02-14T02:27:53.626Z,5.23
2019-02-14T02:30:20.145Z,4.90
2019-02-14T02:32:46.984Z,5.20
2019-02-14T02:35:13.829Z,5.40
2019-02-14T02:37:40.673Z,5.10
2019-02-14T02:40:07.205Z,5.07
2019-02-14T02:42:34.050Z,5.47
2019-02-14T02:45:00.581Z,5.20
2019-02-14T02:47:27.432Z,5.53
2019-02-14T02:49:53.958Z,5.43
2019-02-14T02:52:20.493Z,5.23
2019-02-14T02:54:47.333Z,5.17
2019-02-14T02:57:13.875Z,5.70
2019-02-14T02:59:40.713Z,5.50
2019-02-14T03:02:07.254Z,5.67
2019-02-14T03:04:34.084Z,5.10
2019-02-14T03:07:00.600Z,4.80
2019-02-14T03:09:27.160Z,4.63
2019-02-14T03:11:54.916Z,5.30
2019-02-14T03:14:21.643Z,4.73
2019-02-14T03:16:48.291Z,4.83
2019-02-14T03:19:14.830Z,5.03
2019-02-14T03:21:41.361Z,4.67
2019-02-14T03:24:08.203Z,4.57
2019-02-14T03:26:35.044Z,5.23
2019-02-14T03:29:01.580Z,4.83
2019-02-14T03:31:28.125Z,4.70
2019-02-14T03:33:54.652Z,4.97
2019-02-14T03:36:21.489Z,4.90
2019-02-14T03:38:48.026Z,5.10
2019-02-14T03:41:14.561Z,5.07
2019-02-14T03:43:41.096Z,4.97
2019-02-14T03:46:07.628Z,5.03
2019-02-14T03:48:34.164Z,5.20
2019-02-14T03:51:00.701Z,4.90
2019-02-14T03:53:27.230Z,4.50
2019-02-14T03:55:54.073Z,4.90
2019-02-14T03:58:20.612Z,5.00
2019-02-14T04:00:47.462Z,4.70
2019-02-14T04:03:13.983Z,4.47
2019-02-14T04:05:40.824Z,4.80
2019-02-14T04:08:07.360Z,5.00
2019-02-14T04:10:33.895Z,4.27
2019-02-14T04:13:00.735Z,4.60
2019-02-14T04:15:27.275Z,4.43
2019-02-14T04:17:54.116Z,4.80
2019-02-14T04:20:20.649Z,4.70
2019-02-14T04:22:47.271Z,4.60
2019-02-14T04:25:14.023Z,4.47
2019-02-14T04:27:40.562Z,4.40
2019-02-14T04:30:07.092Z,4.80
2019-02-14T04:32:33.934Z,4.30
2019-02-14T04:35:00.474Z,5.00
2019-02-14T04:37:27.309Z,4.40
2019-02-14T04:39:53.844Z,4.50
2019-02-14T04:42:20.381Z,4.60
2019-02-14T04:44:46.915Z,4.77
2019-02-14T04:47:13.449Z,4.90
2019-02-14T04:49:41.965Z,4.67
2019-02-14T04:52:08.359Z,4.97
2019-02-14T04:54:34.895Z,4.90
2019-02-14T04:57:01.743Z,4.60
2019-02-14T04:59:28.271Z,4.30
2019-02-14T05:01:55.113Z,4.37
2019-02-14T05:04:21.650Z,4.30
2019-02-14T05:06:48.181Z,4.30
2019-02-14T05:09:14.724Z,4.30
2019-02-14T05:11:41.250Z,4.10
2019-02-14T05:14:07.786Z,5.00
2019-02-14T05:16:34.326Z,4.20
2019-02-14T05:19:00.857Z,4.33
2019-02-14T05:21:27.388Z,4.07
2019-02-14T05:23:53.923Z,3.90
2019-02-14T05:26:20.463Z,4.30
2019-02-14T05:28:47.000Z,4.07
2019-02-14T05:31:13.833Z,4.17
2019-02-14T05:33:40.371Z,4.30
2019-02-14T05:36:06.905Z,4.20
2019-02-14T05:38:33.447Z,4.10
2019-02-14T05:40:59.971Z,4.10
2019-02-14T05:43:26.813Z,4.30
2019-02-14T05:45:53.353Z,4.37
2019-02-14T05:48:20.192Z,4.13
2019-02-14T05:50:46.752Z,4.43
2019-02-14T05:53:13.259Z,4.70
2019-02-14T05:55:40.105Z,4.97
2019-02-14T05:58:06.634Z,4.20
2019-02-14T06:00:33.171Z,4.27
2019-02-14T06:02:59.706Z,4.00
2019-02-14T06:05:26.239Z,4.77
2019-02-14T06:07:52.775Z,5.53
2019-02-14T06:10:19.310Z,6.07
2019-02-14T06:12:45.842Z,6.23
2019-02-14T06:15:12.377Z,5.33
2019-02-14T06:17:38.914Z,5.70
2019-02-14T06:20:05.546Z,6.23
2019-02-14T06:22:32.287Z,5.93
2019-02-14T06:24:58.820Z,6.00
2019-02-14T06:27:25.360Z,6.40
2019-02-14T06:29:52.197Z,5.73
2019-02-14T06:32:18.733Z,6.17
2019-02-14T06:34:45.265Z,5.80
2019-02-14T06:37:11.804Z,5.73
2019-02-14T06:39:38.335Z,5.70
2019-02-14T06:42:04.973Z,6.17
2019-02-14T06:44:31.732Z,5.97
2019-02-14T06:46:58.252Z,5.40
2019-02-14T06:49:24.781Z,5.60
2019-02-14T06:51:51.316Z,4.93
2019-02-14T06:54:17.851Z,5.73
2019-02-14T06:56:44.385Z,5.57
2019-02-14T06:59:11.226Z,5.30
2019-02-14T07:01:37.763Z,5.70
2019-02-14T07:04:04.602Z,5.00
2019-02-14T07:06:31.140Z,5.67
2019-02-14T07:08:57.671Z,5.30
2019-02-14T07:11:24.514Z,5.37
2019-02-14T07:13:51.354Z,5.23
2019-02-14T07:16:17.889Z,5.27
2019-02-14T07:18:44.730Z,5.23
2019-02-14T07:21:11.574Z,5.17
2019-02-14T07:23:38.108Z,5.43
2019-02-14T07:26:04.641Z,5.50
2019-02-14T07:28:31.481Z,5.40
2019-02-14T07:30:58.018Z,4.73
2019-02-14T07:33:24.549Z,5.13
2019-02-14T07:35:51.392Z,5.00
2019-02-14T07:38:17.928Z,5.13
2019-02-14T07:40:44.464Z,4.93
2019-02-14T07:43:11.306Z,5.43
2019-02-14T07:45:37.840Z,5.27
2019-02-14T07:48:04.681Z,4.63
2019-02-14T07:50:31.525Z,4.60
2019-02-14T07:52:58.089Z,4.87
2019-02-14T07:55:24.591Z,5.10
2019-02-14T07:57:51.228Z,4.63
2019-02-14T08:00:17.975Z,4.53
2019-02-14T08:02:44.502Z,5.23
2019-02-14T08:05:11.035Z,5.10
2019-02-14T08:07:37.570Z,4.27
2019-02-14T08:10:04.415Z,5.03
2019-02-14T08:12:31.253Z,4.70
2019-02-14T08:14:57.788Z,5.13
2019-02-14T08:17:24.321Z,4.70
2019-02-14T08:19:50.858Z,4.27
2019-02-14T08:22:17.398Z,4.63
2019-02-14T08:24:43.928Z,4.83
2019-02-14T08:27:10.564Z,4.30
2019-02-14T08:29:37.187Z,4.13
2019-02-14T08:32:03.835Z,4.37
2019-02-14T08:34:30.677Z,4.53
2019-02-14T08:36:57.215Z,4.00
2019-02-14T08:39:24.099Z,4.03
2019-02-14T08:41:50.674Z,4.40
2019-02-14T08:44:17.436Z,3.60
2019-02-14T08:46:43.965Z,4.20
2019-02-14T08:49:10.807Z,3.77
2019-02-14T08:51:37.340Z,3.70
2019-02-14T08:54:03.875Z,4.57
2019-02-14T08:56:30.716Z,4.53
2019-02-14T08:58:57.254Z,4.00
2019-02-14T09:01:23.795Z,4.03
2019-02-14T09:03:50.631Z,3.60
2019-02-14T09:06:17.165Z,4.00
2019-02-14T09:08:43.726Z,4.07
2019-02-14T09:11:10.231Z,3.90
2019-02-14T09:13:36.766Z,3.43
2019-02-14T09:16:03.609Z,3.90
2019-02-14T09:18:30.222Z,3.73
2019-02-14T09:20:56.983Z,3.70
2019-02-14T09:23:23.519Z,3.80
2019-02-14T09:25:50.364Z,4.00
2019-02-14T09:28:17.204Z,3.50
2019-02-14T09:30:43.739Z,3.70
2019-02-14T09:33:10.371Z,3.37
2019-02-14T09:35:37.002Z,3.37
2019-02-14T09:38:03.847Z,3.87
2019-02-14T09:40:31.122Z,3.47
2019-02-14T09:42:57.636Z,3.67
2019-02-14T09:45:24.171Z,3.30
2019-02-14T09:47:51.012Z,3.17
2019-02-14T09:50:17.548Z,3.20
2019-02-14T09:52:44.416Z,3.63
2019-02-14T09:55:10.931Z,3.40
2019-02-14T09:57:37.785Z,3.10
2019-02-14T10:00:04.299Z,3.30
2019-02-14T10:02:30.810Z,3.20
2019-02-14T10:04:57.364Z,3.20
2019-02-14T10:07:24.222Z,3.50
2019-02-14T10:09:50.745Z,3.03
2019-02-14T10:12:17.291Z,3.30
2019-02-14T10:14:43.815Z,3.10
2019-02-14T10:17:10.349Z,3.03
2019-02-14T10:19:37.193Z,3.63
2019-02-14T10:22:03.725Z,3.20
2019-02-14T10:24:30.261Z,2.77
2019-02-14T10:26:56.795Z,2.70
2019-02-14T10:29:23.774Z,2.83
2019-02-14T10:31:50.479Z,2.60
2019-02-14T10:34:17.012Z,3.07
2019-02-14T10:36:43.549Z,3.10
2019-02-14T10:39:10.084Z,3.10
2019-02-14T10:41:36.615Z,3.27
2019-02-14T10:44:03.455Z,2.80
2019-02-14T10:46:30.296Z,2.90
2019-02-14T10:48:56.838Z,3.07
2019-02-14T10:51:23.674Z,2.73
2019-02-14T10:53:50.209Z,3.30
2019-02-14T10:56:17.053Z,2.63
2019-02-14T10:58:43.583Z,3.10
2019-02-14T11:01:10.427Z,2.77
2019-02-14T11:03:36.959Z,2.47
2019-02-14T11:06:03.499Z,2.77
2019-02-14T11:08:31.959Z,2.60
2019-02-14T11:10:58.406Z,2.50
2019-02-14T11:13:24.954Z,2.50
2019-02-14T11:15:51.474Z,2.43
2019-02-14T11:18:18.010Z,2.50
2019-02-14T11:20:44.853Z,2.63
2019-02-14T11:23:11.365Z,2.53
2019-02-14T11:25:38.232Z,2.67
2019-02-14T11:28:05.117Z,2.77
2019-02-14T11:30:31.683Z,2.43
2019-02-14T11:32:58.444Z,2.83
2019-02-14T11:35:24.980Z,2.40
2019-02-14T11:37:51.490Z,2.20
2019-02-14T11:40:18.078Z,2.70
2019-02-14T11:42:44.584Z,2.73
2019-02-14T11:45:11.129Z,2.90
2019-02-14T11:47:37.658Z,2.17
2019-02-14T11:50:06.474Z,2.60
2019-02-14T11:52:32.565Z,3.00
2019-02-14T11:54:59.098Z,2.97
2019-02-14T11:57:25.940Z,3.07
2019-02-14T11:59:52.474Z,3.00
2019-02-14T12:02:19.015Z,2.40
2019-02-14T12:04:45.542Z,2.67
2019-02-14T12:07:12.180Z,2.83
2019-02-14T12:09:38.919Z,2.70
2019-02-14T12:12:05.472Z,2.83
2019-02-14T12:14:31.991Z,2.70
2019-02-14T12:16:58.833Z,2.93
2019-02-14T12:19:25.367Z,2.87
2019-02-14T12:21:51.902Z,2.80
2019-02-14T12:24:18.444Z,2.60
2019-02-14T12:26:45.274Z,2.60
2019-02-14T12:29:11.808Z,3.07
2019-02-14T12:31:38.351Z,2.67
2019-02-14T12:34:04.969Z,2.70
2019-02-14T12:36:31.725Z,2.93
2019-02-14T12:38:58.565Z,2.47
2019-02-14T12:41:25.099Z,2.60
2019-02-14T12:43:51.633Z,2.50
2019-02-14T12:46:18.474Z,2.40
2019-02-14T12:48:45.011Z,2.57
2019-02-14T12:51:11.848Z,2.70
2019-02-14T12:53:38.361Z,2.60
2019-02-14T12:56:04.939Z,2.50
2019-02-14T12:58:31.760Z,2.50
2019-02-14T13:00:58.293Z,2.40
2019-02-14T13:03:24.829Z,1.90
2019-02-14T13:05:51.365Z,2.97
2019-02-14T13:08:17.904Z,2.67
2019-02-14T13:10:44.741Z,2.63
2019-02-14T13:13:11.273Z,2.50
2019-02-14T13:15:37.809Z,2.40
2019-02-14T13:18:04.342Z,2.70
2019-02-14T13:20:30.879Z,2.20
2019-02-14T13:22:57.722Z,2.30
2019-02-14T13:25:24.254Z,2.40
2019-02-14T13:27:50.801Z,2.60
2019-02-14T13:30:17.628Z,2.80
2019-02-14T13:32:44.163Z,2.57
2019-02-14T13:35:11.011Z,2.70
2019-02-14T13:37:37.539Z,3.17
2019-02-14T13:40:04.384Z,3.07
2019-02-14T13:42:30.919Z,3.23
2019-02-14T13:44:57.458Z,2.60
2019-02-14T13:47:24.290Z,3.20
2019-02-14T13:49:51.133Z,3.23
2019-02-14T13:52:17.670Z,3.47
2019-02-14T13:54:44.511Z,3.30
2019-02-14T13:57:11.043Z,3.73
2019-02-14T13:59:38.210Z,3.87
2019-02-14T14:02:04.733Z,4.10
2019-02-14T14:04:31.261Z,4.33
2019-02-14T14:06:58.107Z,4.27
2019-02-14T14:09:24.654Z,4.17
2019-02-14T14:11:51.478Z,5.03
2019-02-14T14:14:18.325Z,4.40
2019-02-14T14:16:44.854Z,4.27
2019-02-14T14:19:11.393Z,3.73
2019-02-14T14:21:37.929Z,3.90
2019-02-14T14:24:04.768Z,3.93
2019-02-14T14:26:31.344Z,4.17
2019-02-14T14:28:58.143Z,4.20
2019-02-14T14:31:24.675Z,4.33
2019-02-14T14:33:51.215Z,4.53
2019-02-14T14:36:18.050Z,4.13
2019-02-14T14:38:44.859Z,4.73
2019-02-14T14:41:11.431Z,4.80
2019-02-14T14:43:37.962Z,4.83
2019-02-14T14:46:04.804Z,4.90
2019-02-14T14:48:31.957Z,4.50
2019-02-14T14:50:58.490Z,4.53
2019-02-14T14:53:25.022Z,4.90
2019-02-14T14:55:51.560Z,4.67
2019-02-14T14:58:18.098Z,5.03
2019-02-14T15:00:44.731Z,4.90
2019-02-14T15:03:11.350Z,4.60
2019-02-14T15:05:38.005Z,5.07
2019-02-14T15:08:08.840Z,4.77
2019-02-14T15:10:35.677Z,5.23
2019-02-14T15:13:02.520Z,4.70
2019-02-14T15:15:29.063Z,5.47
2019-02-14T15:17:55.593Z,5.13
2019-02-14T15:20:22.226Z,4.77
2019-02-14T15:22:48.974Z,4.60
2019-02-14T15:25:15.806Z,4.67
2019-02-14T15:27:42.698Z,5.47
2019-02-14T15:30:09.493Z,5.30
2019-02-14T15:32:36.024Z,5.30
2019-02-14T15:35:02.865Z,5.70
2019-02-14T15:37:29.497Z,5.53
2019-02-14T15:39:56.248Z,5.57
2019-02-14T15:42:22.777Z,5.47
2019-02-14T15:44:49.404Z,5.37
2019-02-14T15:47:16.155Z,5.30
2019-02-14T15:49:44.635Z,5.37
2019-02-14T15:52:11.064Z,4.87
2019-02-14T15:54:37.601Z,5.17
2019-02-14T15:57:04.145Z,4.90
2019-02-14T15:59:30.670Z,5.40
2019-02-14T16:01:57.298Z,5.80
2019-02-14T16:04:24.033Z,5.83
2019-02-14T16:06:52.254Z,5.20
2019-02-14T16:09:18.960Z,5.70
2019-02-14T16:11:45.494Z,5.80
2019-02-14T16:14:12.332Z,5.97
2019-02-14T16:16:38.868Z,6.67
2019-02-14T16:19:05.448Z,6.27
2019-02-14T16:21:32.260Z,6.70
2019-02-14T16:23:59.086Z,6.33
2019-02-14T16:26:25.926Z,5.93
2019-02-14T16:28:52.463Z,5.80
2019-02-14T16:31:19.308Z,6.30
2019-02-14T16:33:45.847Z,5.93
2019-02-14T16:36:12.377Z,6.90
2019-02-14T16:38:39.213Z,6.80
2019-02-14T16:41:06.035Z,6.07
2019-02-14T16:43:32.590Z,6.50
2019-02-14T16:45:59.123Z,6.23
2019-02-14T16:48:25.965Z,6.33
2019-02-14T16:50:52.879Z,6.97
2019-02-14T16:53:19.648Z,6.60
2019-02-14T16:55:46.490Z,6.13
2019-02-14T16:58:13.034Z,6.30
2019-02-14T17:00:39.565Z,6.90
2019-02-14T17:03:07.976Z,7.13
2019-02-14T17:05:35.699Z,7.90
2019-02-14T17:08:02.233Z,7.90
2019-02-14T17:10:36.576Z,7.23
2019-02-14T17:12:57.150Z,7.23
2019-02-14T17:15:23.766Z,8.10
2019-02-14T17:17:50.527Z,8.43
2019-02-14T17:20:17.063Z,9.20
2019-02-14T17:22:43.591Z,8.27
2019-02-14T17:25:10.213Z,7.97
2019-02-14T17:27:37.274Z,7.97
2019-02-14T17:30:04.512Z,8.20
2019-02-14T17:32:31.281Z,8.50
2019-02-14T17:34:57.807Z,9.03
2019-02-14T17:37:24.335Z,12.03
2019-02-14T17:39:50.870Z,9.70
2019-02-14T17:42:17.409Z,9.77
2019-02-14T17:44:44.254Z,11.00
2019-02-14T17:47:10.783Z,11.30
2019-02-14T17:49:37.321Z,10.67
2019-02-14T17:52:03.955Z,11.57
2019-02-14T17:54:30.698Z,12.40
2019-02-14T17:56:57.229Z,13.03
2019-02-14T17:59:24.160Z,12.60
2019-02-14T18:01:51.215Z,12.63
2019-02-14T18:04:18.366Z,12.20
2019-02-14T18:06:44.898Z,13.03
2019-02-14T18:09:11.438Z,13.37
2019-02-14T18:11:37.975Z,12.60
2019-02-14T18:14:05.121Z,13.27
2019-02-14T18:16:31.962Z,13.53
2019-02-14T18:18:58.838Z,13.30
2019-02-14T18:21:25.643Z,13.63
2019-02-14T18:23:52.186Z,14.07
2019-02-14T18:26:19.018Z,13.87
2019-02-14T18:28:45.865Z,14.67
2019-02-14T18:31:12.403Z,13.70
2019-02-14T18:33:39.021Z,13.63
2019-02-14T18:36:05.776Z,13.93
2019-02-14T18:38:32.318Z,13.80
2019-02-14T18:41:04.108Z,15.13
2019-02-14T18:43:27.522Z,14.43
2019-02-14T18:45:54.064Z,15.00
2019-02-14T18:48:21.104Z,14.13
2019-02-14T18:50:47.743Z,15.03
2019-02-14T18:53:14.583Z,14.40
2019-02-14T18:55:41.436Z,15.20
2019-02-14T18:58:07.965Z,14.50
2019-02-14T19:00:34.495Z,14.67
2019-02-14T19:03:01.334Z,14.67
2019-02-14T19:05:28.190Z,14.50
2019-02-14T19:07:54.710Z,14.80
2019-02-14T19:10:21.248Z,14.90
2019-02-14T19:12:47.789Z,14.57
2019-02-14T19:15:14.313Z,15.40
2019-02-14T19:17:41.158Z,14.40
2019-02-14T19:20:07.705Z,15.43
2019-02-14T19:22:34.237Z,14.50
2019-02-14T19:25:00.763Z,14.43
2019-02-14T19:27:27.318Z,14.17
2019-02-14T19:29:54.137Z,14.50
2019-02-14T19:32:20.675Z,13.77
2019-02-14T19:34:47.210Z,14.63
2019-02-14T19:37:13.738Z,14.33
2019-02-14T19:39:40.282Z,14.73
2019-02-14T19:42:07.122Z,14.67
2019-02-14T19:44:33.653Z,13.17
2019-02-14T19:47:00.183Z,15.40
2019-02-14T19:49:26.724Z,13.53
2019-02-14T19:51:53.261Z,14.10
2019-02-14T19:54:20.097Z,14.97
2019-02-14T19:56:46.639Z,14.20
2019-02-14T19:59:13.177Z,13.97
2019-02-14T20:01:39.992Z,14.13
2019-02-14T20:04:06.543Z,13.97
2019-02-14T20:06:33.424Z,14.17
2019-02-14T20:09:00.222Z,14.50
2019-02-14T20:11:36.289Z,13.87
2019-02-14T20:13:55.139Z,14.83
2019-02-14T20:16:21.671Z,15.13
2019-02-14T20:18:48.202Z,15.47
2019-02-14T20:21:14.749Z,15.23
2019-02-14T20:23:41.276Z,14.23
2019-02-14T20:26:08.114Z,14.53
2019-02-14T20:28:34.649Z,14.40
2019-02-14T20:31:01.493Z,14.53
2019-02-14T20:33:28.333Z,14.07
2019-02-14T20:35:54.868Z,14.73
2019-02-14T20:38:21.401Z,14.87
2019-02-14T20:40:47.941Z,14.27
2019-02-14T20:43:14.779Z,14.33
2019-02-14T20:45:41.315Z,14.40
2019-02-14T20:48:07.855Z,14.40
2019-02-14T20:50:34.393Z,13.80
2019-02-14T20:53:00.919Z,13.13
2019-02-14T20:55:27.758Z,13.37
2019-02-14T20:57:54.295Z,15.00
2019-02-14T21:00:21.144Z,14.83
2019-02-14T21:02:47.669Z,15.30
2019-02-14T21:05:14.202Z,14.23
2019-02-14T21:07:41.047Z,14.43
2019-02-14T21:10:07.582Z,14.83
2019-02-14T21:12:34.421Z,14.07
2019-02-14T21:15:00.958Z,14.37
2019-02-14T21:17:27.800Z,14.47
2019-02-14T21:19:54.640Z,13.53
2019-02-14T21:22:21.484Z,14.77
2019-02-14T21:24:48.027Z,14.57
2019-02-14T21:27:14.551Z,14.47
2019-02-14T21:29:41.396Z,14.30
2019-02-14T21:32:08.361Z,14.57
2019-02-14T21:34:35.400Z,14.40
2019-02-14T21:37:02.224Z,16.30
2019-02-14T21:39:28.762Z,15.03
2019-02-14T21:42:17.545Z,14.60
2019-02-14T21:44:23.672Z,14.37
2019-02-14T21:46:50.221Z,14.47
2019-02-14T21:49:16.751Z,14.50
2019-02-14T21:51:43.580Z,14.07
2019-02-14T21:54:10.123Z,14.80
2019-02-14T21:56:36.964Z,15.67
2019-02-14T21:59:03.520Z,14.90
2019-02-14T22:01:30.342Z,15.27
2019-02-14T22:03:57.815Z,14.43
2019-02-14T22:06:24.645Z,15.83
2019-02-14T22:08:51.600Z,13.47
2019-02-14T22:11:18.326Z,14.03
2019-02-14T22:13:44.913Z,15.00
2019-02-14T22:16:11.776Z,14.20
2019-02-14T22:18:38.535Z,13.60
2019-02-14T22:21:05.449Z,13.57
2019-02-14T22:23:32.221Z,14.10
2019-02-14T22:25:58.752Z,14.00
2019-02-14T22:28:25.612Z,13.77
2019-02-14T22:30:52.455Z,13.67
2019-02-14T22:33:19.274Z,13.80
2019-02-14T22:35:45.856Z,11.50
2019-02-14T22:38:12.673Z,12.63
2019-02-14T22:40:39.186Z,12.83
2019-02-14T22:43:05.718Z,11.27
2019-02-14T22:45:32.560Z,13.40
2019-02-14T22:47:59.623Z,12.80
2019-02-14T22:50:26.243Z,13.43
2019-02-14T22:52:53.047Z,11.53
2019-02-14T22:55:19.621Z,12.30
2019-02-14T22:57:46.156Z,12.33
2019-02-14T23:00:12.997Z,12.43
2019-02-14T23:02:39.531Z,11.70
2019-02-14T23:05:06.371Z,12.67
2019-02-14T23:07:32.910Z,12.30
2019-02-14T23:09:59.748Z,12.40
2019-02-14T23:12:26.593Z,11.97
2019-02-14T23:14:53.436Z,12.93
2019-02-14T23:17:19.968Z,12.30
2019-02-14T23:19:46.512Z,11.63
2019-02-14T23:22:13.342Z,11.60
2019-02-14T23:24:39.876Z,12.47
2019-02-14T23:27:06.721Z,12.33
2019-02-14T23:29:33.256Z,11.47
2019-02-14T23:31:59.791Z,11.73
2019-02-14T23:34:26.632Z,12.40
2019-02-14T23:36:53.164Z,12.07
2019-02-14T23:39:20.005Z,12.40
2019-02-14T23:41:46.551Z,11.43
2019-02-14T23:44:13.381Z,11.50
2019-02-14T23:46:40.228Z,11.40
2019-02-14T23:49:06.756Z,12.57
2019-02-14T23:51:33.683Z,12.07
2019-02-14T23:54:00.440Z,11.73
2019-02-14T23:56:27.282Z,11.37
2019-02-14T23:58:54.130Z,11.30
